| time (UTC) | temp C | wind direction | speed KPH | gust KPH | rain 1hr cm | rain 24hr cm | rain mn cm | humidity % | barometer mb |
| 20260509213007 | 18 | 246 | 1.6 | 17.7 | 0.00 | 0.79 | 0.79 | 44 | 1008.3 |
| 20260509211511 | 18 | 236 | 1.6 | 9.7 | 0.00 | 0.79 | 0.79 | 43 | 1008.4 |
| 20260509210005 | 18 | 242 | 3.2 | 12.9 | 0.00 | 0.79 | 0.79 | 43 | 1008.4 |
| 20260509204502 | 18 | 248 | 3.2 | 16.1 | 0.00 | 0.79 | 0.79 | 42 | 1008.6 |
| 20260509203005 | 18 | 217 | 4.8 | 19.3 | 0.00 | 0.79 | 0.79 | 44 | 1008.6 |
| 20260509201600 | 18 | 253 | 1.6 | 12.9 | 0.00 | 0.79 | 0.79 | 42 | 1008.8 |
| 20260509200058 | 18 | 189 | 4.8 | 22.5 | 0.00 | 0.79 | 0.79 | 44 | 1009.0 |
| 20260509194556 | 18 | 225 | 3.2 | 14.5 | 0.00 | 0.79 | 0.79 | 43 | 1009.2 |
| 20260509193054 | 18 | 259 | 3.2 | 16.1 | 0.00 | 0.79 | 0.79 | 45 | 1009.5 |
| 20260509191552 | 18 | 40 | 4.8 | 16.1 | 0.00 | 0.79 | 0.79 | 24 | 1009.7 |
| 20260509190148 | 17 | 244 | 3.2 | 9.7 | 0.00 | 0.79 | 0.79 | 22 | 1009.7 |
| 20260509184542 | 16 | 263 | 1.6 | 9.7 | 0.00 | 0.79 | 0.79 | 29 | 1009.7 |
| 20260509183038 | 15 | 340 | 0.0 | 4.8 | 0.00 | 0.79 | 0.79 | 31 | 1009.8 |
| 20260509181533 | 13 | 217 | 0.0 | 3.2 | 0.00 | 0.79 | 0.79 | 34 | 1009.9 |
| 20260509180030 | 13 | 246 | 0.0 | 3.2 | 0.00 | 0.79 | 0.79 | 35 | 1009.8 |
| 20260509174526 | 12 | 234 | 0.0 | 6.4 | 0.00 | 0.79 | 0.79 | 37 | 1009.6 |
| 20260509173052 | 12 | 209 | 1.6 | 4.8 | 0.00 | 0.79 | 0.79 | 39 | 1009.5 |
| 20260509171530 | 11 | 319 | 0.0 | 3.2 | 0.00 | 0.79 | 0.79 | 41 | 1009.4 |
| 20260509170023 | 11 | 113 | 1.6 | 4.8 | 0.00 | 0.79 | 0.79 | 41 | 1009.4 |
| 20260509164522 | 11 | 199 | 1.6 | 6.4 | 0.00 | 0.79 | 0.79 | 42 | 1009.5 |
| 20260509163024 | 11 | 251 | 1.6 | 6.4 | 0.00 | 0.79 | 0.79 | 41 | 1009.6 |
| 20260509161521 | 11 | 275 | 1.6 | 14.5 | 0.00 | 0.79 | 0.79 | 41 | 1009.6 |
| 20260509160023 | 11 | 238 | 3.2 | 6.4 | 0.00 | 0.79 | 0.79 | 42 | 1009.8 |
| 20260509154520 | 11 | 242 | 3.2 | 8.0 | 0.00 | 0.79 | 0.79 | 43 | 1009.8 |
| 20260509153029 | 11 | 195 | 1.6 | 4.8 | 0.03 | 0.79 | 0.79 | 44 | 1010.0 |
| 20260509151518 | 11 | 238 | 1.6 | 9.7 | 0.05 | 0.79 | 0.79 | 44 | 1010.1 |
| 20260509150015 | 11 | 228 | 3.2 | 11.3 | 0.05 | 0.79 | 0.79 | 44 | 1010.2 |
| 20260509144515 | 11 | 217 | 1.6 | 6.4 | 0.05 | 0.79 | 0.79 | 44 | 1010.2 |
| 20260509143017 | 10 | 211 | 3.2 | 17.7 | 0.03 | 0.76 | 0.76 | 44 | 1010.3 |
| 20260509141513 | 11 | 179 | 1.6 | 4.8 | 0.03 | 0.71 | 0.71 | 44 | 1010.4 |
| 20260509140014 | 11 | 262 | 3.2 | 12.9 | 0.08 | 0.71 | 0.71 | 44 | 1010.3 |
| 20260509134512 | 10 | 221 | 1.6 | 6.4 | 0.13 | 0.71 | 0.71 | 45 | 1010.4 |
| 20260509133011 | 10 | 179 | 0.0 | 4.8 | 0.15 | 0.71 | 0.71 | 45 | 1010.2 |
| 20260509131510 | 10 | 259 | 1.6 | 8.0 | 0.15 | 0.71 | 0.71 | 44 | 1010.4 |
| 20260509130015 | 10 | 217 | 1.6 | 6.4 | 0.13 | 0.66 | 0.66 | 44 | 1010.6 |
| 20260509124511 | 10 | 211 | 1.6 | 6.4 | 0.10 | 0.61 | 0.61 | 44 | 1010.8 |
| 20260509123003 | 10 | 239 | 1.6 | 12.9 | 0.13 | 0.58 | 0.58 | 44 | 1010.6 |
| 20260509121501 | 10 | 263 | 1.6 | 6.4 | 0.13 | 0.56 | 0.56 | 44 | 1010.7 |
| 20260509120101 | 10 | 253 | 1.6 | 3.2 | 0.10 | 0.53 | 0.53 | 44 | 1010.7 |
| 20260509114627 | 10 | 240 | 0.0 | 3.2 | 0.10 | 0.51 | 0.51 | 44 | 1010.7 |
| 20260509113131 | 10 | 236 | 0.0 | 6.4 | 0.08 | 0.46 | 0.46 | 44 | 1010.6 |
| 20260509111557 | 9 | 232 | 1.6 | 3.2 | 0.05 | 0.43 | 0.43 | 44 | 1010.6 |
| 20260509110100 | 9 | 205 | 0.0 | 0.0 | 0.08 | 0.43 | 0.43 | 43 | 1010.5 |
| 20260509104554 | 9 | 186 | 0.0 | 0.0 | 0.08 | 0.41 | 0.41 | 43 | 1010.5 |
| 20260509103100 | 9 | 227 | 0.0 | 0.0 | 0.08 | 0.38 | 0.38 | 42 | 1010.5 |
| 20260509101559 | 9 | 227 | 0.0 | 1.6 | 0.15 | 0.38 | 0.38 | 40 | 1010.7 |
| 20260509100050 | 9 | 227 | 1.6 | 4.8 | 0.18 | 0.36 | 0.36 | 38 | 1010.7 |
| 20260509094550 | 10 | 196 | 0.0 | 0.0 | 0.23 | 0.33 | 0.33 | 36 | 1010.9 |
| 20260509093046 | 10 | 196 | 0.0 | 3.2 | 0.25 | 0.30 | 0.30 | 40 | 1011.3 |
| 20260509091544 | 10 | 196 | 0.0 | 4.8 | 0.23 | 0.23 | 0.23 | 46 | 1011.3 |
| 20260509090043 | 10 | 11 | 1.6 | 4.8 | 0.18 | 0.18 | 0.18 | 55 | 1011.2 |
| 20260509084539 | 11 | 278 | 1.6 | 6.4 | 0.10 | 0.10 | 0.10 | 57 | 1011.4 |
| 20260509083038 | 11 | 331 | 1.6 | 6.4 | 0.05 | 0.05 | 0.05 | 54 | 1011.2 |
| 20260509081537 | 12 | 215 | 1.6 | 8.0 | 0.00 | 0.00 | 0.00 | 50 | 1010.5 |
| 20260509080043 | 11 | 235 | 3.2 | 9.7 | 0.00 | 0.00 | 0.00 | 50 | 1010.1 |
| 20260509074537 | 11 | 234 | 1.6 | 16.1 | 0.00 | 0.00 | 0.00 | 55 | 1009.9 |
| 20260509073037 | 10 | 342 | 0.0 | 0.0 | 0.00 | 0.00 | 0.00 | 56 | 1009.4 |
| 20260509071534 | 11 | 328 | 0.0 | 0.0 | 0.00 | 0.00 | 0.00 | 56 | 1009.5 |
| 20260509070031 | 11 | 328 | 0.0 | 0.0 | 0.00 | 0.00 | 0.00 | 57 | 1009.4 |
| 20260509064530 | 11 | 327 | 0.0 | 0.0 | 0.00 | 0.00 | 0.00 | 55 | 1009.6 |
| 20260509063034 | 11 | 327 | 0.0 | 0.0 | 0.00 | 0.00 | 0.00 | 54 | 1009.5 |
| 20260509061530 | 11 | 327 | 0.0 | 0.0 | 0.00 | 0.00 | 0.00 | 55 | 1009.7 |
| 20260509060026 | 11 | 327 | 0.0 | 0.0 | 0.00 | 0.00 | 0.00 | 55 | 1009.9 |
| 20260509054522 | 11 | 325 | 0.0 | 0.0 | 0.00 | 0.00 | 0.00 | 53 | 1010.3 |
| 20260509053019 | 11 | 328 | 0.0 | 0.0 | 0.00 | 0.00 | 0.00 | 55 | 1010.7 |
| 20260509051516 | 12 | 329 | 0.0 | 0.0 | 0.00 | 0.00 | 0.00 | 55 | 1011.1 |
| 20260509050023 | 12 | 329 | 0.0 | 0.0 | 0.00 | 0.00 | 0.00 | 54 | 1011.2 |
| 20260509044514 | 12 | 329 | 0.0 | 0.0 | 0.00 | 0.00 | 0.00 | 54 | 1011.2 |
| 20260509043012 | 12 | 326 | 0.0 | 0.0 | 0.00 | 0.00 | 0.00 | 54 | 1011.4 |
| 20260509041518 | 12 | 327 | 0.0 | 0.0 | 0.00 | 0.00 | 0.00 | 55 | 1011.4 |
| 20260509040007 | 12 | 324 | 0.0 | 0.0 | 0.00 | 0.00 | 0.00 | 53 | 1011.6 |
| 20260509034506 | 12 | 324 | 0.0 | 3.2 | 0.00 | 0.00 | 0.00 | 53 | 1011.8 |
| 20260509033007 | 13 | 34 | 1.6 | 4.8 | 0.00 | 0.00 | 0.00 | 51 | 1011.8 |
| 20260509031520 | 13 | 44 | 0.0 | 3.2 | 0.00 | 0.00 | 0.00 | 48 | 1011.8 |
| 20260509030008 | 14 | 350 | 0.0 | 8.0 | 0.00 | 0.00 | 0.00 | 44 | 1011.9 |
| 20260509024506 | 14 | 318 | 3.2 | 9.7 | 0.00 | 0.00 | 0.00 | 43 | 1012.1 |
| 20260509023004 | 13 | 332 | 1.6 | 4.8 | 0.00 | 0.00 | 0.00 | 45 | 1012.1 |
| 20260509021505 | 13 | 217 | 0.0 | 3.2 | 0.00 | 0.00 | 0.00 | 45 | 1012.0 |
| 20260509020002 | 13 | 217 | 0.0 | 1.6 | 0.00 | 0.00 | 0.00 | 45 | 1011.7 |
| 20260509014502 | 13 | 217 | 0.0 | 0.0 | 0.00 | 0.00 | 0.00 | 45 | 1011.5 |
| 20260509013003 | 13 | 217 | 0.0 | 1.6 | 0.00 | 0.00 | 0.00 | 45 | 1011.3 |
| 20260509011600 | 14 | 217 | 0.0 | 0.0 | 0.00 | 0.00 | 0.00 | 45 | 1011.2 |
| 20260509010103 | 14 | 217 | 0.0 | 0.0 | 0.00 | 0.00 | 0.00 | 44 | 1011.2 |
| 20260509004609 | 15 | 217 | 0.0 | 1.6 | 0.00 | 0.00 | 0.00 | 44 | 1011.2 |
| 20260509003104 | 15 | 217 | 0.0 | 0.0 | 0.00 | 0.00 | 0.00 | 44 | 1011.3 |
| 20260509001559 | 15 | 217 | 0.0 | 3.2 | 0.00 | 0.00 | 0.00 | 40 | 1011.2 |
| 20260509000058 | 15 | 217 | 0.0 | 1.6 | 0.00 | 0.00 | 0.00 | 38 | 1011.0 |
| 20260508234559 | 16 | 217 | 0.0 | 3.2 | 0.00 | 0.00 | 0.00 | 38 | 1011.0 |
| 20260508233058 | 16 | 217 | 0.0 | 3.2 | 0.00 | 0.00 | 0.00 | 37 | 1010.9 |
| 20260508231559 | 16 | 217 | 0.0 | 3.2 | 0.00 | 0.00 | 0.00 | 37 | 1011.0 |
| 20260508230126 | 16 | 217 | 0.0 | 4.8 | 0.00 | 0.00 | 0.00 | 37 | 1011.0 |
| 20260508224603 | 16 | 172 | 0.0 | 4.8 | 0.00 | 0.00 | 0.00 | 37 | 1011.0 |
| 20260508223055 | 17 | 243 | 1.6 | 6.4 | 0.00 | 0.00 | 0.00 | 37 | 1011.0 |
| 20260508221554 | 17 | 240 | 3.2 | 14.5 | 0.00 | 0.00 | 0.00 | 35 | 1010.9 |
| 20260508220118 | 17 | 225 | 4.8 | 17.7 | 0.00 | 0.00 | 0.00 | 37 | 1011.0 |
| 20260508214556 | 17 | 230 | 0.0 | 4.8 | 0.00 | 0.00 | 0.00 | 34 | 1011.1 |